createdAt,value
2019-02-04T00:00:03.586Z,99.90
2019-02-04T00:04:49.545Z,99.90
2019-02-04T00:09:35.965Z,99.90
2019-02-04T00:14:21.690Z,99.90
2019-02-04T00:19:07.511Z,99.90
2019-02-04T00:23:53.335Z,99.90
2019-02-04T00:28:39.220Z,99.90
2019-02-04T00:33:25.056Z,99.90
2019-02-04T00:38:11.171Z,99.90
2019-02-04T00:42:56.980Z,99.90
2019-02-04T00:47:42.853Z,99.90
2019-02-04T00:52:28.652Z,99.90
2019-02-04T00:57:14.486Z,99.90
2019-02-04T01:02:00.421Z,99.90
2019-02-04T01:06:46.349Z,99.90
2019-02-04T01:11:32.091Z,99.90
2019-02-04T01:16:17.829Z,99.90
2019-02-04T01:21:03.675Z,99.90
2019-02-04T01:25:49.463Z,99.90
2019-02-04T01:30:35.240Z,99.90
2019-02-04T01:35:21.085Z,99.90
2019-02-04T01:40:10.106Z,99.90
2019-02-04T01:44:55.921Z,99.90
2019-02-04T01:49:41.848Z,99.90
2019-02-04T01:54:27.602Z,99.90
2019-02-04T01:59:13.524Z,99.90
2019-02-04T02:03:59.314Z,99.90
2019-02-04T02:08:45.109Z,99.90
2019-02-04T02:13:31.176Z,99.90
2019-02-04T02:18:17.284Z,99.90
2019-02-04T02:23:03.222Z,99.90
2019-02-04T02:27:50.379Z,99.90
2019-02-04T02:32:36.754Z,99.90
2019-02-04T02:37:23.004Z,99.90
2019-02-04T02:42:08.980Z,99.90
2019-02-04T02:46:55.035Z,99.90
2019-02-04T02:51:40.899Z,99.90
2019-02-04T02:56:26.721Z,99.90
2019-02-04T03:01:12.741Z,99.90
2019-02-04T03:05:58.907Z,99.90
2019-02-04T03:10:45.150Z,99.90
2019-02-04T03:15:31.069Z,99.90
2019-02-04T03:20:17.480Z,99.90
2019-02-04T03:25:03.462Z,99.90
2019-02-04T03:29:49.388Z,99.90
2019-02-04T03:34:35.583Z,99.90
2019-02-04T03:39:21.515Z,99.90
2019-02-04T03:44:07.368Z,99.90
2019-02-04T03:48:53.475Z,99.90
2019-02-04T03:53:39.233Z,99.90
2019-02-04T03:58:25.117Z,99.90
2019-02-04T04:03:11.411Z,99.90
2019-02-04T04:07:57.345Z,99.90
2019-02-04T04:12:43.199Z,99.90
2019-02-04T04:17:29.098Z,99.90
2019-02-04T04:22:14.855Z,99.90
2019-02-04T04:27:01.434Z,99.90
2019-02-04T04:31:47.797Z,99.90
2019-02-04T04:36:33.562Z,99.90
2019-02-04T04:41:19.281Z,99.90
2019-02-04T04:46:05.194Z,99.90
2019-02-04T04:50:51.036Z,99.90
2019-02-04T04:55:36.867Z,99.90
2019-02-04T05:00:25.538Z,99.90
2019-02-04T05:05:12.227Z,99.90
2019-02-04T05:09:57.966Z,99.90
2019-02-04T05:14:43.770Z,99.90
2019-02-04T05:19:29.522Z,99.90
2019-02-04T05:24:15.259Z,99.90
2019-02-04T05:29:01.535Z,99.90
2019-02-04T05:33:47.655Z,99.90
2019-02-04T05:38:33.542Z,99.90
2019-02-04T05:43:19.782Z,99.90
2019-02-04T05:48:05.764Z,99.90
2019-02-04T05:52:52.092Z,99.90
2019-02-04T05:57:38.569Z,99.90
2019-02-04T06:02:24.518Z,99.90
2019-02-04T06:07:10.584Z,99.90
2019-02-04T06:11:56.730Z,99.90
2019-02-04T06:16:43.309Z,99.90
2019-02-04T06:21:29.069Z,99.90
2019-02-04T06:26:14.782Z,99.90
2019-02-04T06:31:00.609Z,99.90
2019-02-04T06:35:46.474Z,99.90
2019-02-04T06:40:32.279Z,99.90
2019-02-04T06:45:18.754Z,99.90
2019-02-04T06:50:05.273Z,99.90
2019-02-04T06:54:51.053Z,99.90
2019-02-04T06:59:36.901Z,99.90
2019-02-04T07:04:22.659Z,99.90
2019-02-04T07:09:11.675Z,99.90
2019-02-04T07:13:57.606Z,99.90
2019-02-04T07:18:43.459Z,99.90
2019-02-04T07:23:29.409Z,99.90
2019-02-04T07:28:16.028Z,99.90
2019-02-04T07:33:02.047Z,99.90
2019-02-04T07:37:48.690Z,99.90
2019-02-04T07:42:34.561Z,99.90
2019-02-04T07:47:20.456Z,99.90
2019-02-04T07:52:06.482Z,99.90
2019-02-04T07:56:54.753Z,99.90
2019-02-04T08:01:40.780Z,99.90
2019-02-04T08:06:26.718Z,99.90
2019-02-04T08:11:12.919Z,99.90
2019-02-04T08:15:59.041Z,99.90
2019-02-04T08:20:44.932Z,99.90
2019-02-04T08:25:31.038Z,99.90
2019-02-04T08:30:26.067Z,99.90
2019-02-04T08:35:11.985Z,99.90
2019-02-04T08:39:58.096Z,99.90
2019-02-04T08:44:43.853Z,99.90
2019-02-04T08:49:29.645Z,99.90
2019-02-04T08:54:15.734Z,99.90
2019-02-04T08:59:02.047Z,99.90
2019-02-04T09:03:48.192Z,99.90
2019-02-04T09:08:34.198Z,99.90
2019-02-04T09:13:19.902Z,93.00
2019-02-04T09:18:06.320Z,88.10
2019-02-04T09:22:52.160Z,82.50
2019-02-04T09:27:38.255Z,84.20
2019-02-04T09:32:24.825Z,93.30
2019-02-04T09:37:10.791Z,99.90
2019-02-04T09:41:56.575Z,99.90
2019-02-04T09:46:42.793Z,99.90
2019-02-04T09:51:29.155Z,99.90
2019-02-04T09:56:15.184Z,99.90
2019-02-04T10:01:04.149Z,99.90
2019-02-04T10:05:49.006Z,91.70
2019-02-04T10:10:35.293Z,88.00
2019-02-04T10:15:26.837Z,86.00
2019-02-04T10:20:14.124Z,85.70
2019-02-04T10:25:00.212Z,81.50
2019-02-04T10:29:49.064Z,77.60
2019-02-04T10:34:34.897Z,73.70
2019-02-04T10:39:21.065Z,70.10
2019-02-04T10:44:07.440Z,64.60
2019-02-04T10:48:53.231Z,58.10
2019-02-04T10:53:39.905Z,55.60
2019-02-04T10:58:26.515Z,50.60
2019-02-04T11:03:12.588Z,48.30
2019-02-04T11:07:59.122Z,49.40
2019-02-04T11:12:45.497Z,48.90
2019-02-04T11:17:31.591Z,48.80
2019-02-04T11:22:17.601Z,43.20
2019-02-04T11:27:03.500Z,45.40
2019-02-04T11:31:49.444Z,45.40
2019-02-04T11:36:35.201Z,44.70
2019-02-04T11:41:21.285Z,43.20
2019-02-04T11:46:07.323Z,42.00
2019-02-04T11:50:53.282Z,42.40
2019-02-04T11:55:39.153Z,41.80
2019-02-04T12:00:26.704Z,40.70
2019-02-04T12:05:14.317Z,40.80
2019-02-04T12:10:00.331Z,40.60
2019-02-04T12:14:46.350Z,37.90
2019-02-04T12:19:32.404Z,35.50
2019-02-04T12:24:18.569Z,36.40
2019-02-04T12:29:04.932Z,37.10
2019-02-04T12:33:50.682Z,37.70
2019-02-04T12:38:36.429Z,38.80
2019-02-04T12:43:22.640Z,37.10
2019-02-04T12:48:08.650Z,33.80
2019-02-04T12:52:54.562Z,32.30
2019-02-04T12:57:40.785Z,32.60
2019-02-04T13:02:26.726Z,32.20
2019-02-04T13:07:12.552Z,31.10
2019-02-04T13:11:58.405Z,31.40
2019-02-04T13:16:44.575Z,30.40
2019-02-04T13:21:30.425Z,30.40
2019-02-04T13:26:16.315Z,30.80
2019-02-04T13:31:03.766Z,31.70
2019-02-04T13:35:52.923Z,30.80
2019-02-04T13:40:39.046Z,30.20
2019-02-04T13:45:25.478Z,30.10
2019-02-04T13:50:11.596Z,30.00
2019-02-04T13:54:57.498Z,29.20
2019-02-04T13:59:43.454Z,31.60
2019-02-04T14:04:29.433Z,38.00
2019-02-04T14:09:20.446Z,40.80
2019-02-04T14:14:06.594Z,41.00
2019-02-04T14:18:52.396Z,42.50
2019-02-04T14:23:39.006Z,41.90
2019-02-04T14:28:24.869Z,41.50
2019-02-04T14:33:11.220Z,40.80
2019-02-04T14:37:57.340Z,38.60
2019-02-04T14:42:43.977Z,37.60
2019-02-04T14:47:45.422Z,35.90
2019-02-04T14:53:18.218Z,34.80
2019-02-04T14:58:40.771Z,35.50
2019-02-04T15:04:04.700Z,37.40
2019-02-04T15:09:42.719Z,39.40
2019-02-04T15:15:24.150Z,38.70
2019-02-04T15:20:55.634Z,37.50
2019-02-04T15:26:00.149Z,37.00
2019-02-04T15:31:29.931Z,38.50
2019-02-04T15:36:48.176Z,44.60
2019-02-04T15:42:05.500Z,51.60
2019-02-04T15:47:08.899Z,59.00
2019-02-04T15:51:58.128Z,62.80
2019-02-04T15:56:44.187Z,71.00
2019-02-04T16:01:30.313Z,91.30
2019-02-04T16:06:16.164Z,98.50
2019-02-04T16:11:02.140Z,99.90
2019-02-04T16:15:48.805Z,99.90
2019-02-04T16:20:35.418Z,99.90
2019-02-04T16:25:22.738Z,99.90
2019-02-04T16:30:12.133Z,99.90
2019-02-04T16:34:58.304Z,99.90
2019-02-04T16:39:44.328Z,99.90
2019-02-04T16:44:30.657Z,99.90
2019-02-04T16:49:16.778Z,99.90
2019-02-04T16:54:02.973Z,99.90
2019-02-04T16:58:49.161Z,99.90
2019-02-04T17:03:35.373Z,99.90
2019-02-04T17:08:21.341Z,99.90
2019-02-04T17:13:08.063Z,99.90
2019-02-04T17:17:54.141Z,99.90
2019-02-04T17:22:40.323Z,99.90
2019-02-04T17:27:26.753Z,99.90
2019-02-04T17:32:12.997Z,99.90
2019-02-04T17:36:59.167Z,99.90
2019-02-04T17:41:45.623Z,99.90
2019-02-04T17:46:31.847Z,99.90
2019-02-04T17:51:17.812Z,99.90
2019-02-04T17:56:05.274Z,99.90
2019-02-04T18:00:53.541Z,99.90
2019-02-04T18:05:39.768Z,99.90
2019-02-04T18:10:25.794Z,99.90
2019-02-04T18:15:14.538Z,99.90
2019-02-04T18:20:00.505Z,99.90
2019-02-04T18:24:46.605Z,99.90
2019-02-04T18:29:32.861Z,99.90
2019-02-04T18:34:19.192Z,99.90
2019-02-04T18:39:08.792Z,99.90
2019-02-04T18:43:54.741Z,99.90
2019-02-04T18:48:41.077Z,99.90
2019-02-04T18:53:27.141Z,99.90
2019-02-04T18:58:13.736Z,99.90
2019-02-04T19:03:00.943Z,99.90
2019-02-04T19:07:46.891Z,99.90
2019-02-04T19:12:33.299Z,99.90
2019-02-04T19:17:19.503Z,99.90
2019-02-04T19:22:05.636Z,99.90
2019-02-04T19:26:53.972Z,99.90
2019-02-04T19:31:39.692Z,99.90
2019-02-04T19:36:25.960Z,99.90
2019-02-04T19:41:12.357Z,99.90
2019-02-04T19:45:58.505Z,99.90
2019-02-04T19:50:44.589Z,99.90
2019-02-04T19:55:30.662Z,99.90
2019-02-04T20:00:20.693Z,99.90
2019-02-04T20:05:08.495Z,99.90
2019-02-04T20:09:54.652Z,99.90
2019-02-04T20:14:40.776Z,99.90
2019-02-04T20:19:28.784Z,99.90
2019-02-04T20:24:15.257Z,99.90
2019-02-04T20:29:01.222Z,99.90
2019-02-04T20:33:47.668Z,99.90
2019-02-04T20:38:33.647Z,99.90
2019-02-04T20:43:19.653Z,99.90
2019-02-04T20:48:06.925Z,99.90
2019-02-04T20:52:53.126Z,99.90
2019-02-04T20:57:38.985Z,99.90
2019-02-04T21:02:25.120Z,99.90
2019-02-04T21:07:11.879Z,99.90
2019-02-04T21:11:58.133Z,99.90
2019-02-04T21:16:44.169Z,99.90
2019-02-04T21:21:30.297Z,99.90
2019-02-04T21:26:16.314Z,99.90
2019-02-04T21:31:02.412Z,99.90
2019-02-04T21:35:48.487Z,99.90
2019-02-04T21:40:34.742Z,99.90
2019-02-04T21:45:21.529Z,99.90
2019-02-04T21:50:10.822Z,99.90
2019-02-04T21:55:07.739Z,99.90
2019-02-04T21:59:44.193Z,99.90
2019-02-04T22:04:30.139Z,99.90
2019-02-04T22:09:16.163Z,99.90
2019-02-04T22:14:01.933Z,99.90
2019-02-04T22:18:47.881Z,99.90
2019-02-04T22:23:33.803Z,99.90
2019-02-04T22:28:20.703Z,99.90
2019-02-04T22:33:07.169Z,99.90
2019-02-04T22:37:53.099Z,99.90
2019-02-04T22:42:39.425Z,99.90
2019-02-04T22:47:25.344Z,99.90
2019-02-04T22:52:11.354Z,99.90
2019-02-04T22:56:57.215Z,99.90
2019-02-04T23:01:53.825Z,99.90
2019-02-04T23:06:39.986Z,99.90
2019-02-04T23:11:25.902Z,99.90
2019-02-04T23:16:12.147Z,99.90
2019-02-04T23:20:58.133Z,99.90
2019-02-04T23:25:44.169Z,99.90
2019-02-04T23:30:30.148Z,99.90
2019-02-04T23:35:16.068Z,99.90
2019-02-04T23:40:01.912Z,99.90
2019-02-04T23:44:47.734Z,99.90
2019-02-04T23:49:33.460Z,99.90
2019-02-04T23:54:19.332Z,99.90
2019-02-04T23:59:05.318Z,99.90
